Time;durP1;ratioP1;P1;durP2;ratioP2;P2;SDS_P1;SDS_P2;PMS_P1;PMS_P2;Temp;Humidity;BMP_temperature;BMP_pressure;BME280_temperature;BME280_humidity;BME280_pressure;Samples;Min_cycle;Max_cycle;Signal;HPM_P1;HPM_P2
2022/05/10 00:00:11;;;;;;;9.05;4.80;;;13.40;99.90;;;;;;5035781;28;20094;-69
2022/05/10 00:02:37;;;;;;;11.18;5.60;;;13.30;99.90;;;;;;5043413;28;20046;-70
2022/05/10 00:05:04;;;;;;;6.78;5.25;;;13.30;99.90;;;;;;5040548;28;20044;-71
2022/05/10 00:07:33;;;;;;;10.38;5.32;;;13.30;99.90;;;;;;5044630;28;20048;-69
2022/05/10 00:09:59;;;;;;;12.40;5.63;;;13.30;99.90;;;;;;5039040;28;20942;-71
2022/05/10 00:12:25;;;;;;;7.95;5.45;;;13.20;99.90;;;;;;5009117;28;20045;-69
2022/05/10 00:14:51;;;;;;;11.95;5.90;;;13.20;99.90;;;;;;5046986;28;20032;-69
2022/05/10 00:17:27;;;;;;;9.77;5.55;;;13.30;99.90;;;;;;5045806;28;20167;-72
2022/05/10 00:19:53;;;;;;;10.30;5.55;;;13.40;99.90;;;;;;5044406;28;20033;-67
2022/05/10 00:22:19;;;;;;;8.48;5.32;;;13.40;99.90;;;;;;5041590;28;20174;-68
2022/05/10 00:24:44;;;;;;;14.50;5.68;;;13.50;99.90;;;;;;5047459;28;20136;-70
2022/05/10 00:27:10;;;;;;;11.68;6.68;;;13.50;99.90;;;;;;5014552;28;20045;-70
2022/05/10 00:29:35;;;;;;;12.02;6.93;;;13.60;99.90;;;;;;5042955;28;20090;-68
2022/05/10 00:32:01;;;;;;;9.77;6.00;;;13.60;99.90;;;;;;5014519;28;20363;-67
2022/05/10 00:34:29;;;;;;;10.93;6.35;;;13.60;99.90;;;;;;5045747;28;20392;-71
2022/05/10 00:36:55;;;;;;;10.07;6.40;;;13.60;99.90;;;;;;5042609;28;20068;-70
2022/05/10 00:39:20;;;;;;;12.00;6.20;;;13.50;99.90;;;;;;5048511;28;20055;-69
2022/05/10 00:41:58;;;;;;;10.27;6.18;;;13.40;99.90;;;;;;5038272;28;20485;-71
2022/05/10 00:44:32;;;;;;;14.48;6.38;;;13.30;99.90;;;;;;5044588;28;20041;-67
2022/05/10 00:47:28;;;;;;;10.67;6.03;;;13.20;99.90;;;;;;5042658;28;20362;-69
2022/05/10 00:49:56;;;;;;;8.18;5.90;;;13.10;99.90;;;;;;5038544;28;20303;-68
2022/05/10 00:52:48;;;;;;;9.20;5.63;;;13.00;99.90;;;;;;5042890;28;20037;-68
2022/05/10 00:55:23;;;;;;;10.25;5.85;;;13.00;99.90;;;;;;5042025;28;20484;-69
2022/05/10 00:57:57;;;;;;;13.23;6.40;;;12.90;99.90;;;;;;5028043;28;20124;-69
2022/05/10 01:00:26;;;;;;;8.77;6.45;;;13.00;99.90;;;;;;5032216;28;20049;-70
2022/05/10 01:03:12;;;;;;;8.65;5.80;;;12.90;99.90;;;;;;5043075;28;20041;-71
2022/05/10 01:06:06;;;;;;;7.53;5.30;;;12.90;99.90;;;;;;5041872;28;20056;-71
2022/05/10 01:08:46;;;;;;;14.18;6.30;;;12.90;99.90;;;;;;5043679;28;20048;-68
2022/05/10 01:11:21;;;;;;;11.23;6.47;;;12.90;99.90;;;;;;5047796;28;20060;-69
2022/05/10 01:14:01;;;;;;;9.38;6.00;;;12.90;99.90;;;;;;5046945;28;20397;-71
2022/05/10 01:16:27;;;;;;;11.75;6.70;;;13.00;99.90;;;;;;5042077;28;20060;-68
2022/05/10 01:18:53;;;;;;;13.57;6.13;;;13.00;99.90;;;;;;5025181;28;20455;-68
2022/05/10 01:21:42;;;;;;;8.75;5.70;;;13.00;99.90;;;;;;5026992;28;20037;-69
2022/05/10 01:24:46;;;;;;;10.68;5.57;;;12.90;99.90;;;;;;5025921;28;20053;-71
2022/05/10 01:27:43;;;;;;;10.80;5.80;;;12.90;99.90;;;;;;5042472;28;20103;-72
2022/05/10 01:30:27;;;;;;;9.95;5.53;;;13.00;99.90;;;;;;5042409;28;20041;-69
2022/05/10 01:35:45;;;;;;;7.25;5.60;;;13.00;99.90;;;;;;5045291;28;20065;-72
2022/05/10 01:38:45;;;;;;;8.88;5.30;;;13.00;99.90;;;;;;5044991;28;20061;-71
2022/05/10 01:41:22;;;;;;;8.05;4.65;;;13.10;99.90;;;;;;5047246;28;20067;-68
2022/05/10 01:43:58;;;;;;;7.43;5.13;;;13.20;99.90;;;;;;5045993;28;20044;-70
2022/05/10 01:46:30;;;;;;;7.63;5.15;;;13.20;99.90;;;;;;5044995;28;20074;-67
2022/05/10 01:49:16;;;;;;;8.80;4.88;;;13.20;99.90;;;;;;5045407;28;20041;-68
2022/05/10 01:51:49;;;;;;;9.88;5.03;;;13.20;99.90;;;;;;5042968;28;20207;-68
2022/05/10 01:54:33;;;;;;;6.40;4.28;;;13.20;99.90;;;;;;5046471;28;20120;-71
2022/05/10 01:56:58;;;;;;;7.88;4.50;;;13.20;99.90;;;;;;5048730;28;20502;-70
2022/05/10 01:59:24;;;;;;;8.40;5.10;;;13.30;99.90;;;;;;5050239;28;20033;-71
2022/05/10 02:01:50;;;;;;;9.80;4.90;;;13.20;99.90;;;;;;5033685;28;20460;-69
2022/05/10 02:04:22;;;;;;;11.77;5.45;;;13.30;99.90;;;;;;5021085;28;20705;-69
2022/05/10 02:06:50;;;;;;;8.35;4.10;;;13.30;99.90;;;;;;5048752;28;20078;-68
2022/05/10 02:09:23;;;;;;;10.05;4.38;;;13.40;99.90;;;;;;5032818;28;20048;-69
2022/05/10 02:11:52;;;;;;;7.57;4.30;;;13.40;99.90;;;;;;5049864;28;20041;-71
2022/05/10 02:14:25;;;;;;;8.63;4.90;;;13.50;99.90;;;;;;5033331;28;20048;-68
2022/05/10 02:17:08;;;;;;;9.75;5.15;;;13.40;99.90;;;;;;5050658;28;20366;-69
2022/05/10 02:19:57;;;;;;;8.68;4.90;;;13.40;99.90;;;;;;5047284;28;20044;-71
2022/05/10 02:22:43;;;;;;;8.55;4.20;;;13.50;99.90;;;;;;5038305;28;20440;-71
2022/05/10 02:25:24;;;;;;;9.55;5.32;;;13.60;99.90;;;;;;5028455;28;20041;-69
2022/05/10 02:27:56;;;;;;;8.77;4.82;;;13.50;99.90;;;;;;5040043;28;20044;-69
2022/05/10 02:30:26;;;;;;;11.82;4.97;;;13.60;99.90;;;;;;5050309;28;20412;-70
2022/05/10 02:33:06;;;;;;;9.45;5.03;;;13.60;99.90;;;;;;5043387;28;20120;-69
2022/05/10 02:35:46;;;;;;;9.07;4.63;;;13.60;99.90;;;;;;5050010;28;20049;-68
2022/05/10 02:38:16;;;;;;;12.45;4.88;;;13.50;99.90;;;;;;5045691;28;20132;-70
2022/05/10 02:40:44;;;;;;;7.20;4.68;;;13.50;99.90;;;;;;5052033;28;20041;-70
2022/05/10 02:43:15;;;;;;;13.57;5.15;;;13.50;99.90;;;;;;5039829;28;20127;-69
2022/05/10 02:45:42;;;;;;;8.18;4.88;;;13.40;99.90;;;;;;5033049;28;20075;-68
2022/05/10 02:48:28;;;;;;;11.90;5.07;;;13.50;99.90;;;;;;5048875;28;20148;-68
2022/05/10 02:50:54;;;;;;;6.75;4.63;;;13.50;99.90;;;;;;5049246;28;20082;-69
2022/05/10 02:53:20;;;;;;;10.18;5.18;;;13.40;99.90;;;;;;5045357;28;20178;-68
2022/05/10 02:55:55;;;;;;;9.55;5.60;;;13.50;99.90;;;;;;5047867;28;20070;-69
2022/05/10 02:58:20;;;;;;;;;;;13.40;99.90;;;;;;5048780;28;20131;-69
2022/05/10 03:00:47;;;;;;;11.43;5.35;;;13.40;99.90;;;;;;5048330;28;19996;-69
2022/05/10 03:03:17;;;;;;;8.27;5.28;;;13.50;99.90;;;;;;5026794;28;20074;-68
2022/05/10 03:05:43;;;;;;;11.38;5.68;;;13.50;99.90;;;;;;5021548;28;20114;-71
2022/05/10 03:08:08;;;;;;;11.77;5.78;;;13.50;99.90;;;;;;5049051;28;20041;-69
2022/05/10 03:10:34;;;;;;;9.18;5.47;;;13.50;99.90;;;;;;5047357;28;20145;-71
2022/05/10 03:13:00;;;;;;;12.98;6.55;;;13.50;99.90;;;;;;5048411;28;20047;-73
2022/05/10 03:15:26;;;;;;;8.02;5.47;;;13.50;99.90;;;;;;5046912;28;20094;-70
2022/05/10 03:17:52;;;;;;;10.20;5.88;;;13.50;99.90;;;;;;5015016;28;20033;-71
2022/05/10 03:20:17;;;;;;;12.30;6.00;;;13.50;99.90;;;;;;5031268;28;20112;-70
2022/05/10 03:22:43;;;;;;;9.75;6.00;;;13.50;99.90;;;;;;5047335;28;20487;-68
2022/05/10 03:25:09;;;;;;;9.55;5.97;;;13.50;99.90;;;;;;5013699;28;20759;-70
2022/05/10 03:27:37;;;;;;;9.20;6.55;;;13.50;99.90;;;;;;5031469;28;20091;-69
2022/05/10 03:30:04;;;;;;;10.48;6.30;;;13.50;99.90;;;;;;5031224;28;20037;-73
2022/05/10 03:32:30;;;;;;;6.60;5.05;;;13.50;99.90;;;;;;5046380;28;20098;-70
2022/05/10 03:34:57;;;;;;;11.07;6.05;;;13.50;99.90;;;;;;5033200;28;20045;-72
2022/05/10 03:37:29;;;;;;;10.55;5.85;;;13.50;99.90;;;;;;5044927;28;20107;-70
2022/05/10 03:39:56;;;;;;;10.70;5.45;;;13.50;99.90;;;;;;5047918;28;20036;-70
2022/05/10 03:42:22;;;;;;;9.98;6.38;;;13.50;99.90;;;;;;5044216;28;20064;-70
2022/05/10 03:44:54;;;;;;;13.50;7.07;;;13.50;99.90;;;;;;5045234;28;20053;-72
2022/05/10 03:47:26;;;;;;;9.18;5.32;;;13.50;99.90;;;;;;5037579;28;20386;-69
2022/05/10 03:49:53;;;;;;;10.40;5.78;;;13.50;99.90;;;;;;5046950;28;20091;-69
2022/05/10 03:52:19;;;;;;;10.27;6.00;;;13.50;99.90;;;;;;5045383;28;20045;-68
2022/05/10 03:54:46;;;;;;;13.57;7.00;;;13.50;99.90;;;;;;5045744;28;20039;-69
2022/05/10 03:57:12;;;;;;;9.90;5.80;;;13.60;99.90;;;;;;5044871;28;20049;-70
2022/05/10 03:59:41;;;;;;;7.95;5.97;;;13.50;99.90;;;;;;5032587;28;20052;-69
2022/05/10 04:02:12;;;;;;;7.70;5.72;;;13.50;99.90;;;;;;5031172;28;20060;-70
2022/05/10 04:04:38;;;;;;;8.55;5.63;;;13.70;99.90;;;;;;5047885;28;20122;-71
2022/05/10 04:07:04;;;;;;;9.23;6.35;;;13.60;99.90;;;;;;5045775;28;20041;-70
2022/05/10 04:09:30;;;;;;;9.57;5.80;;;13.60;99.90;;;;;;5043916;28;20120;-72
2022/05/10 04:11:55;;;;;;;11.55;6.60;;;13.70;99.90;;;;;;5031723;28;20737;-73
2022/05/10 04:14:21;;;;;;;10.48;6.32;;;13.70;99.90;;;;;;5030193;28;20116;-68
2022/05/10 04:16:47;;;;;;;9.43;6.25;;;13.70;99.90;;;;;;5048458;28;20397;-72
2022/05/10 04:19:12;;;;;;;12.55;7.13;;;13.60;99.90;;;;;;5028401;28;20052;-69
2022/05/10 04:21:38;;;;;;;9.75;7.03;;;13.60;99.90;;;;;;5029677;28;20063;-68
2022/05/10 04:24:04;;;;;;;9.05;6.43;;;13.70;99.90;;;;;;5040287;28;20039;-70
2022/05/10 04:26:29;;;;;;;10.18;6.47;;;13.70;99.90;;;;;;5028072;28;20118;-71
2022/05/10 04:28:55;;;;;;;11.90;6.35;;;13.70;99.90;;;;;;5047928;28;20079;-67
2022/05/10 04:31:21;;;;;;;12.23;6.65;;;13.70;99.90;;;;;;5011149;28;20045;-71
2022/05/10 04:33:47;;;;;;;9.70;7.00;;;13.70;99.90;;;;;;5012784;28;20040;-69
2022/05/10 04:36:12;;;;;;;12.05;7.00;;;13.70;99.90;;;;;;5029089;28;20132;-67
2022/05/10 04:38:38;;;;;;;11.45;6.70;;;13.80;99.90;;;;;;5032068;28;20037;-72
2022/05/10 04:43:49;;;;;;;11.32;6.38;;;13.80;99.90;;;;;;5041572;28;20048;-70
2022/05/10 04:46:15;;;;;;;8.32;5.90;;;13.80;99.90;;;;;;5048507;28;20458;-69
2022/05/10 04:48:41;;;;;;;9.00;6.63;;;13.90;99.90;;;;;;5045735;28;20046;-71
2022/05/10 04:51:07;;;;;;;12.23;6.97;;;13.90;99.90;;;;;;5032079;28;20052;-72
2022/05/10 04:53:33;;;;;;;10.25;6.90;;;13.90;99.90;;;;;;5045833;28;20469;-69
2022/05/10 04:55:59;;;;;;;10.20;6.30;;;13.90;99.90;;;;;;5047406;28;20069;-68
2022/05/10 04:58:25;;;;;;;14.30;7.30;;;14.00;99.90;;;;;;5046272;28;20041;-71
2022/05/10 05:00:54;;;;;;;8.32;6.53;;;14.00;99.90;;;;;;5047884;28;20082;-71
2022/05/10 05:03:19;;;;;;;15.07;6.95;;;14.10;99.90;;;;;;5048176;28;20128;-69
2022/05/10 05:05:45;;;;;;;10.70;6.82;;;14.10;99.90;;;;;;5031868;28;20112;-67
2022/05/10 05:08:11;;;;;;;11.45;7.38;;;14.10;99.90;;;;;;5032061;28;20049;-70
2022/05/10 05:10:36;;;;;;;9.32;6.57;;;14.20;99.90;;;;;;5061120;28;20041;-70
2022/05/10 05:13:02;;;;;;;15.60;7.15;;;14.20;99.90;;;;;;5047319;28;20050;-71
2022/05/10 05:15:28;;;;;;;12.27;7.63;;;14.30;99.90;;;;;;5031232;28;20040;-68
2022/05/10 05:17:53;;;;;;;12.05;7.10;;;14.30;99.90;;;;;;5047075;28;20036;-69
2022/05/10 05:20:19;;;;;;;12.00;6.88;;;14.30;99.90;;;;;;5029653;28;20048;-70
2022/05/10 05:22:45;;;;;;;9.48;6.95;;;14.40;99.90;;;;;;5047880;28;20041;-67
2022/05/10 05:25:11;;;;;;;11.05;6.13;;;14.40;99.90;;;;;;5045415;28;20049;-68
2022/05/10 05:27:36;;;;;;;10.18;6.82;;;14.40;99.90;;;;;;5033170;28;20404;-67
2022/05/10 05:30:03;;;;;;;11.18;6.82;;;14.50;99.90;;;;;;5049515;28;20073;-68
2022/05/10 05:32:34;;;;;;;14.25;7.65;;;14.50;99.90;;;;;;5050347;28;20039;-70
2022/05/10 05:35:01;;;;;;;10.98;7.18;;;14.50;99.90;;;;;;5049238;28;20049;-69
2022/05/10 05:37:33;;;;;;;10.68;7.70;;;14.50;99.90;;;;;;5035952;28;20095;-68
2022/05/10 05:40:08;;;;;;;10.23;6.97;;;14.60;99.90;;;;;;5035606;28;20083;-67
2022/05/10 05:42:35;;;;;;;11.13;7.65;;;14.70;99.90;;;;;;5049232;28;20055;-69
2022/05/10 05:45:02;;;;;;;11.13;8.32;;;14.70;99.90;;;;;;5049938;28;20517;-70
2022/05/10 05:47:27;;;;;;;10.77;7.18;;;14.80;99.90;;;;;;5021644;28;20115;-69
2022/05/10 05:49:53;;;;;;;10.60;7.40;;;14.80;99.90;;;;;;5063828;28;20120;-71
2022/05/10 05:52:21;;;;;;;8.95;6.18;;;14.80;99.90;;;;;;5033887;28;20045;-69
2022/05/10 05:54:51;;;;;;;10.30;6.32;;;14.90;99.90;;;;;;5033654;28;20037;-70
2022/05/10 05:57:17;;;;;;;9.05;6.80;;;14.90;99.90;;;;;;5049833;28;20044;-70
2022/05/10 05:59:43;;;;;;;13.68;6.93;;;15.00;99.90;;;;;;5050790;28;20055;-67
2022/05/10 06:02:17;;;;;;;11.90;7.18;;;15.00;99.90;;;;;;5051307;28;20044;-71
2022/05/10 06:04:43;;;;;;;10.70;7.22;;;15.10;99.90;;;;;;5051212;28;20041;-69
2022/05/10 06:07:13;;;;;;;11.27;7.70;;;15.20;99.90;;;;;;5030304;28;20710;-68
2022/05/10 06:09:40;;;;;;;11.77;6.85;;;15.20;99.90;;;;;;5047071;28;20041;-69
2022/05/10 06:12:08;;;;;;;11.30;6.70;;;15.30;99.90;;;;;;5036214;28;20040;-66
2022/05/10 06:14:35;;;;;;;8.52;6.90;;;15.30;99.90;;;;;;5050913;28;20037;-67
2022/05/10 06:17:01;;;;;;;11.20;7.13;;;15.40;99.90;;;;;;5047114;28;20036;-69
2022/05/10 06:19:28;;;;;;;13.43;7.68;;;15.50;99.90;;;;;;5045487;28;20094;-68
2022/05/10 06:21:55;;;;;;;11.70;6.88;;;15.50;99.90;;;;;;5046702;28;20116;-70
2022/05/10 06:24:21;;;;;;;11.20;7.10;;;15.60;99.90;;;;;;5051143;28;20056;-70
2022/05/10 06:26:47;;;;;;;12.18;7.57;;;15.70;99.90;;;;;;5048751;28;20037;-70
2022/05/10 06:29:12;;;;;;;10.85;6.68;;;15.80;99.90;;;;;;5051801;28;20048;-68
2022/05/10 06:31:43;;;;;;;13.77;7.63;;;15.90;99.90;;;;;;5047569;28;20405;-69
2022/05/10 06:34:10;;;;;;;10.13;6.88;;;16.10;99.90;;;;;;5050204;28;20051;-69
2022/05/10 06:36:40;;;;;;;11.27;7.60;;;16.20;99.90;;;;;;5046912;28;20055;-72
2022/05/10 06:39:06;;;;;;;8.77;6.07;;;16.40;99.90;;;;;;5050327;28;20041;-67
2022/05/10 06:41:32;;;;;;;16.48;7.95;;;16.60;99.90;;;;;;5050290;28;20043;-69
2022/05/10 06:43:58;;;;;;;8.07;6.18;;;16.80;99.90;;;;;;5051609;28;20080;-67
2022/05/10 06:46:24;;;;;;;8.43;6.82;;;16.80;99.90;;;;;;5027414;28;20044;-67
2022/05/10 06:48:50;;;;;;;7.32;6.35;;;17.10;99.90;;;;;;5034446;28;20053;-70
2022/05/10 06:51:19;;;;;;;9.40;6.72;;;17.20;99.90;;;;;;5043426;28;20041;-68
2022/05/10 06:53:45;;;;;;;8.15;6.00;;;17.40;99.90;;;;;;5050475;28;20048;-71
2022/05/10 06:56:11;;;;;;;8.88;7.05;;;17.50;99.90;;;;;;5048641;28;20037;-73
2022/05/10 06:58:37;;;;;;;8.48;6.07;;;17.80;99.90;;;;;;5047511;28;20477;-70
2022/05/10 07:01:11;;;;;;;7.47;5.70;;;17.90;99.90;;;;;;5046008;28;20039;-68
2022/05/10 07:03:42;;;;;;;9.07;6.17;;;17.90;99.90;;;;;;5032422;28;20045;-72
2022/05/10 07:06:09;;;;;;;7.53;4.93;;;18.10;99.90;;;;;;5034180;28;20110;-71
2022/05/10 07:08:35;;;;;;;9.13;5.55;;;18.20;99.90;;;;;;5050635;28;20069;-68
2022/05/10 07:11:02;;;;;;;7.93;5.32;;;18.30;99.90;;;;;;5055723;28;20435;-69
2022/05/10 07:13:30;;;;;;;6.95;5.28;;;18.40;99.90;;;;;;5050085;28;20170;-67
2022/05/10 07:15:56;;;;;;;9.02;5.93;;;18.40;99.90;;;;;;5049495;28;20111;-68
2022/05/10 07:18:22;;;;;;;8.60;5.63;;;18.50;99.90;;;;;;5033939;28;20368;-68
2022/05/10 07:20:49;;;;;;;6.43;5.38;;;18.70;99.90;;;;;;5050511;28;20380;-70
2022/05/10 07:23:23;;;;;;;7.97;5.22;;;18.80;99.90;;;;;;5033695;28;20041;-71
2022/05/10 07:25:49;;;;;;;5.38;4.40;;;18.80;99.90;;;;;;5050042;28;20045;-70
2022/05/10 07:28:16;;;;;;;6.47;4.53;;;18.80;99.90;;;;;;5049660;28;20094;-71
2022/05/10 07:30:42;;;;;;;7.05;4.38;;;18.80;99.90;;;;;;5048234;28;20075;-69
2022/05/10 07:33:08;;;;;;;8.93;4.53;;;18.80;99.90;;;;;;5049431;28;20469;-68
2022/05/10 07:38:19;;;;;;;7.60;5.32;;;19.10;99.90;;;;;;5033183;28;20493;-68
2022/05/10 07:40:47;;;;;;;7.97;4.55;;;19.30;99.90;;;;;;5013173;28;20041;-68
2022/05/10 07:43:14;;;;;;;7.57;4.57;;;19.40;99.90;;;;;;5047402;28;20060;-69
2022/05/10 07:45:41;;;;;;;9.32;5.43;;;19.60;99.90;;;;;;5050523;28;20052;-72
2022/05/10 07:48:07;;;;;;;6.65;4.20;;;19.80;99.90;;;;;;5050151;28;20041;-69
2022/05/10 07:50:33;;;;;;;7.68;4.40;;;20.00;99.90;;;;;;5032815;28;20041;-68
2022/05/10 07:53:06;;;;;;;8.00;4.82;;;20.10;99.90;;;;;;5049639;28;20799;-69
2022/05/10 07:55:35;;;;;;;8.85;4.70;;;20.20;99.90;;;;;;5044658;28;20072;-69
2022/05/10 07:58:01;;;;;;;7.47;4.68;;;20.30;99.90;;;;;;5045440;28;20587;-69
2022/05/10 08:00:27;;;;;;;6.68;4.47;;;20.40;99.90;;;;;;5044239;28;20118;-72
2022/05/10 08:02:52;;;;;;;9.50;4.85;;;20.50;99.90;;;;;;5046516;28;20091;-71
2022/05/10 08:05:22;;;;;;;8.25;4.43;;;20.50;99.90;;;;;;5047201;28;20110;-71
2022/05/10 08:07:48;;;;;;;8.68;4.15;;;20.50;99.90;;;;;;5046272;28;20098;-70
2022/05/10 08:10:15;;;;;;;7.78;4.32;;;20.50;99.90;;;;;;5029815;28;20045;-69
2022/05/10 08:12:41;;;;;;;7.72;4.10;;;20.60;99.90;;;;;;5046687;28;20053;-71
2022/05/10 08:15:08;;;;;;;7.63;4.20;;;20.70;99.90;;;;;;5046586;28;20413;-68
2022/05/10 08:17:33;;;;;;;8.60;4.05;;;20.90;99.90;;;;;;5030291;28;20061;-68
2022/05/10 08:19:59;;;;;;;9.68;4.35;;;20.90;99.90;;;;;;5046031;28;20040;-66
2022/05/10 08:22:25;;;;;;;9.68;4.28;;;21.00;99.90;;;;;;5046681;28;20045;-69
2022/05/10 08:24:51;;;;;;;7.45;3.72;;;21.20;99.90;;;;;;5046197;28;20124;-72
2022/05/10 08:27:17;;;;;;;7.70;4.07;;;21.30;99.90;;;;;;5046773;28;20449;-68
2022/05/10 08:29:42;;;;;;;10.35;3.88;;;21.30;99.90;;;;;;5046605;28;20139;-67
2022/05/10 08:32:08;;;;;;;6.80;3.70;;;21.30;99.90;;;;;;5029437;28;20040;-67
2022/05/10 08:34:35;;;;;;;8.18;3.45;;;21.20;99.90;;;;;;5046532;28;20041;-69
2022/05/10 08:37:04;;;;;;;6.60;3.58;;;21.30;99.90;;;;;;5045551;28;20076;-67
2022/05/10 08:39:31;;;;;;;4.55;2.92;;;21.30;99.90;;;;;;5046140;28;20584;-72
2022/05/10 08:42:04;;;;;;;3.88;2.80;;;21.30;99.90;;;;;;5029264;28;20077;-70
2022/05/10 08:44:35;;;;;;;5.82;3.20;;;21.30;99.90;;;;;;5046887;28;20040;-68
2022/05/10 08:47:06;;;;;;;10.55;3.58;;;21.40;99.90;;;;;;5045664;28;20084;-67
2022/05/10 08:49:46;;;;;;;7.50;3.03;;;21.50;99.90;;;;;;5046385;28;20053;-66
2022/05/10 08:52:15;;;;;;;7.22;3.10;;;21.60;99.90;;;;;;5046973;28;20055;-71
2022/05/10 08:54:41;;;;;;;6.85;3.40;;;21.70;99.90;;;;;;5046283;28;20047;-70
2022/05/10 08:57:19;;;;;;;4.65;3.00;;;21.80;99.90;;;;;;5046010;28;20971;-68
2022/05/10 09:00:09;;;;;;;4.93;3.42;;;21.80;99.90;;;;;;5046116;28;20497;-67
2022/05/10 09:02:44;;;;;;;4.93;2.40;;;21.70;99.90;;;;;;5046233;28;20123;-69
2022/05/10 09:05:24;;;;;;;9.25;3.38;;;21.70;99.90;;;;;;5045727;28;20041;-68
2022/05/10 09:08:02;;;;;;;7.22;3.47;;;21.60;99.90;;;;;;5029050;28;20218;-71
2022/05/10 09:10:50;;;;;;;4.95;3.47;;;21.70;99.90;;;;;;5046023;28;20051;-69
2022/05/10 09:13:18;;;;;;;6.35;3.03;;;21.80;99.90;;;;;;5046136;28;20373;-68
2022/05/10 09:15:57;;;;;;;4.75;3.17;;;21.80;99.90;;;;;;5012811;28;20094;-72
2022/05/10 09:18:28;;;;;;;10.30;3.67;;;21.80;99.90;;;;;;5045736;28;20527;-69
2022/05/10 09:21:03;;;;;;;6.03;3.65;;;21.90;99.90;;;;;;5045542;28;20044;-70
2022/05/10 09:23:39;;;;;;;4.65;3.20;;;21.90;99.90;;;;;;5046053;28;20056;-68
2022/05/10 09:26:06;;;;;;;6.70;3.65;;;21.90;99.90;;;;;;5045833;28;20059;-66
2022/05/10 09:28:41;;;;;;;5.13;3.10;;;21.80;99.90;;;;;;5045636;28;20469;-69
2022/05/10 09:37:29;;;;;;;10.30;2.97;;;21.90;99.90;;;;;;5045155;28;20076;-69
2022/05/10 09:39:57;;;;;;;5.90;3.38;;;22.10;99.90;;;;;;5045492;28;20041;-69
2022/05/10 09:42:36;;;;;;;3.47;2.92;;;22.20;99.90;;;;;;5045819;28;20068;-69
2022/05/10 09:45:18;;;;;;;5.60;2.83;;;22.40;99.90;;;;;;5045700;28;20438;-68
2022/05/10 09:47:55;;;;;;;5.25;3.13;;;22.40;99.90;;;;;;5045624;28;20134;-67
2022/05/10 09:50:26;;;;;;;6.72;3.40;;;22.50;99.90;;;;;;5045433;28;20045;-68
2022/05/10 09:53:09;;;;;;;3.70;2.72;;;22.70;99.90;;;;;;5045717;28;20475;-69
2022/05/10 09:55:35;;;;;;;4.68;3.25;;;22.80;99.90;;;;;;5045049;28;20053;-68
2022/05/10 09:58:20;;;;;;;3.88;2.88;;;22.90;99.90;;;;;;5044587;28;20055;-69
2022/05/10 10:00:52;;;;;;;10.02;4.53;;;22.90;99.90;;;;;;5045119;28;20044;-68
2022/05/10 10:03:32;;;;;;;6.95;3.33;;;23.00;99.90;;;;;;5045164;28;20053;-72
2022/05/10 10:06:22;;;;;;;11.93;4.28;;;23.20;99.90;;;;;;5044913;28;20041;-69
2022/05/10 10:08:56;;;;;;;6.68;4.13;;;23.10;99.90;;;;;;5045365;28;20179;-71
2022/05/10 10:11:21;;;;;;;;;;;22.80;99.90;;;;;;5045795;28;20048;-69
2022/05/10 10:14:06;;;;;;;6.15;4.40;;;22.70;99.90;;;;;;5045395;28;19924;-71
2022/05/10 10:16:37;;;;;;;4.93;3.60;;;22.50;99.90;;;;;;5032719;28;20048;-69
2022/05/10 10:19:13;;;;;;;8.05;4.65;;;22.40;99.90;;;;;;5048594;28;20044;-67
2022/05/10 10:21:45;;;;;;;6.70;4.65;;;22.50;99.90;;;;;;5048978;28;20504;-68
2022/05/10 10:24:22;;;;;;;5.95;4.35;;;22.40;99.90;;;;;;5048598;28;20056;-69
2022/05/10 10:26:53;;;;;;;9.85;4.30;;;22.50;99.90;;;;;;5032111;28;20045;-71
2022/05/10 10:29:19;;;;;;;8.57;4.28;;;22.60;99.90;;;;;;5048398;28;20405;-70
2022/05/10 10:32:06;;;;;;;6.57;3.97;;;22.70;99.90;;;;;;5048610;28;20052;-69
2022/05/10 10:34:42;;;;;;;6.90;3.97;;;22.90;99.90;;;;;;5048788;28;20456;-66
2022/05/10 10:37:14;;;;;;;10.10;4.47;;;23.20;99.90;;;;;;5047985;28;20359;-66
2022/05/10 10:39:48;;;;;;;9.18;4.88;;;23.30;99.90;;;;;;5048683;28;20045;-68
2022/05/10 10:42:48;;;;;;;8.15;4.15;;;23.40;99.90;;;;;;5047913;28;20120;-68
2022/05/10 10:45:15;;;;;;;7.70;4.60;;;23.40;99.90;;;;;;5031183;28;20082;-67
2022/05/10 10:48:12;;;;;;;5.25;4.43;;;23.50;99.90;;;;;;5048275;28;20492;-67
2022/05/10 10:50:38;;;;;;;9.90;5.07;;;23.40;99.90;;;;;;5048524;28;20045;-69
2022/05/10 10:53:09;;;;;;;7.85;4.88;;;23.30;99.90;;;;;;5031272;28;20094;-67
2022/05/10 10:55:44;;;;;;;14.32;4.65;;;23.20;99.90;;;;;;5031427;28;20044;-68
2022/05/10 10:58:30;;;;;;;5.95;4.15;;;23.60;99.90;;;;;;5047949;28;20104;-69
2022/05/10 11:01:29;;;;;;;10.75;4.93;;;23.40;99.90;;;;;;5048361;28;20103;-67
2022/05/10 11:04:45;;;;;;;7.95;4.95;;;23.20;99.90;;;;;;5047678;28;20052;-70
2022/05/10 11:07:25;;;;;;;12.43;5.10;;;23.10;99.90;;;;;;5022262;28;20167;-68
2022/05/10 11:10:09;;;;;;;9.75;4.55;;;22.90;99.90;;;;;;5048296;28;20041;-68
2022/05/10 11:13:08;;;;;;;9.30;4.40;;;22.80;99.90;;;;;;5047939;28;20052;-70
2022/05/10 11:15:43;;;;;;;10.93;4.68;;;22.80;99.90;;;;;;5047784;28;20500;-70
2022/05/10 11:18:33;;;;;;;9.32;4.90;;;22.70;99.90;;;;;;5047552;28;20049;-68
2022/05/10 11:21:19;;;;;;;8.30;4.70;;;22.50;99.90;;;;;;5047666;28;20687;-71
2022/05/10 11:23:59;;;;;;;6.82;4.80;;;22.50;99.90;;;;;;5047967;28;20053;-70
2022/05/10 11:26:47;;;;;;;8.57;4.90;;;22.40;99.90;;;;;;5030755;28;20048;-69
2022/05/10 11:30:02;;;;;;;8.07;5.18;;;22.40;99.90;;;;;;5047016;28;20056;-68
2022/05/10 11:32:53;;;;;;;5.43;4.43;;;22.50;99.90;;;;;;5044121;28;20056;-72
2022/05/10 11:35:58;;;;;;;7.05;4.75;;;22.60;99.90;;;;;;5030018;28;20056;-70
2022/05/10 11:38:42;;;;;;;8.93;4.70;;;22.80;99.90;;;;;;5030758;28;20049;-68
2022/05/10 11:41:32;;;;;;;14.85;4.45;;;23.00;99.90;;;;;;5029769;28;20496;-69
2022/05/10 11:44:22;;;;;;;7.25;4.18;;;23.00;99.90;;;;;;5047355;28;20048;-69
2022/05/10 11:47:17;;;;;;;5.45;3.78;;;23.20;99.90;;;;;;5047276;28;20049;-70
2022/05/10 11:50:00;;;;;;;7.55;3.53;;;23.50;99.90;;;;;;5047291;28;20619;-67
2022/05/10 11:52:35;;;;;;;8.80;3.70;;;23.70;99.90;;;;;;5046919;28;20055;-68
2022/05/10 11:55:22;;;;;;;7.03;3.00;;;23.70;99.90;;;;;;5046227;28;20041;-70
2022/05/10 11:57:52;;;;;;;6.05;3.00;;;24.30;99.90;;;;;;5030268;28;20045;-68
2022/05/10 12:00:27;;;;;;;9.32;3.22;;;24.30;99.90;;;;;;5046393;28;20048;-67
2022/05/10 12:02:54;;;;;;;6.82;3.00;;;24.10;99.90;;;;;;5046178;28;20579;-71
2022/05/10 12:05:28;;;;;;;6.88;3.00;;;23.60;99.90;;;;;;5029509;28;20440;-69
2022/05/10 12:08:04;;;;;;;8.10;3.50;;;23.50;99.90;;;;;;5046676;28;20393;-70
2022/05/10 12:10:42;;;;;;;6.00;3.20;;;23.40;99.90;;;;;;5030190;28;20106;-70
2022/05/10 12:13:10;;;;;;;8.90;3.70;;;23.60;99.90;;;;;;5046151;28;20079;-70
2022/05/10 12:21:48;;;;;;;23.13;4.97;;;23.70;99.90;;;;;;5046176;28;20535;-70
2022/05/10 12:24:20;;;;;;;8.80;4.00;;;23.60;99.90;;;;;;5045918;28;20113;-68
2022/05/10 12:27:04;;;;;;;8.35;5.05;;;23.70;99.90;;;;;;5046441;28;20079;-67
2022/05/10 12:29:39;;;;;;;5.88;4.28;;;23.50;99.90;;;;;;5046182;28;20080;-67
2022/05/10 12:32:17;;;;;;;7.15;4.53;;;23.80;99.90;;;;;;5046147;28;20143;-68
2022/05/10 12:34:48;;;;;;;7.85;5.25;;;23.80;99.90;;;;;;5029666;28;20041;-69
2022/05/10 12:37:26;;;;;;;13.90;5.07;;;23.80;99.90;;;;;;5044962;28;20057;-71
2022/05/10 12:39:58;;;;;;;8.88;5.13;;;23.90;99.90;;;;;;5046636;28;20076;-69
2022/05/10 12:42:44;;;;;;;6.70;4.63;;;23.80;99.90;;;;;;5046000;28;20041;-69
2022/05/10 12:45:33;;;;;;;7.30;5.00;;;24.10;99.90;;;;;;5045906;28;20512;-69
2022/05/10 12:48:39;;;;;;;8.43;5.07;;;24.20;99.90;;;;;;5029299;28;20049;-70
2022/05/10 12:51:30;;;;;;;6.68;4.50;;;24.00;99.90;;;;;;5045503;28;20049;-69
2022/05/10 12:54:01;;;;;;;7.97;4.30;;;24.10;99.90;;;;;;5046117;28;20040;-68
2022/05/10 12:56:30;;;;;;;8.23;4.70;;;23.80;99.90;;;;;;5045819;28;20048;-71
2022/05/10 12:59:09;;;;;;;7.88;4.05;;;23.50;99.90;;;;;;5029307;28;20056;-71
2022/05/10 13:01:37;;;;;;;11.30;4.10;;;23.40;99.90;;;;;;5046147;28;20734;-70
2022/05/10 13:04:15;;;;;;;7.43;4.18;;;23.20;99.90;;;;;;5028778;28;20045;-73
2022/05/10 13:07:15;;;;;;;8.88;4.20;;;23.20;99.90;;;;;;5045872;28;20049;-69
2022/05/10 13:09:58;;;;;;;9.07;4.80;;;23.00;99.90;;;;;;5046334;28;20488;-68
2022/05/10 13:12:32;;;;;;;5.97;3.80;;;23.20;99.90;;;;;;5045640;28;20040;-71
2022/05/10 13:15:15;;;;;;;9.43;4.15;;;23.10;99.90;;;;;;5045782;28;20056;-71
2022/05/10 13:17:49;;;;;;;6.78;3.88;;;23.10;99.90;;;;;;5045722;28;20041;-72
2022/05/10 13:20:17;;;;;;;8.88;3.20;;;23.10;99.90;;;;;;5045382;28;20045;-70
2022/05/10 13:23:00;;;;;;;5.57;3.20;;;23.10;99.90;;;;;;5046005;28;20718;-69
2022/05/10 13:25:30;;;;;;;9.10;3.40;;;23.10;99.90;;;;;;5045945;28;20135;-69
2022/05/10 13:28:14;;;;;;;5.60;2.92;;;22.80;99.90;;;;;;5029194;28;20048;-73
2022/05/10 13:30:44;;;;;;;4.15;2.78;;;22.80;99.90;;;;;;5045705;28;20094;-71